Zim Rio Grande — 9HNV9 — position and weather

sailwx.info

Track history (hours):
 
Tides and Currents Weather Stations Pressure Air Temp Water Temp Dewpoint Dewpoint Depression Visibility Wind Speed Wind Dir Waves Ship Positions

Zim Rio Grande

Last reported at 2016-Jun-24 03:27 UTC. Time now 2016-Jun-25 10:39 UTC.
Position N 22°21' E 114°03'.

Length 260 m; draft 11.8 m.

Type: Ship (hazmat cat A). MMSI: 249253000.

Date/timePositionNaut miles runAvg speedWind from/ knotsBaromVisibWave heightAir tempDewpointWater temp
2016-Jun-24 03:27N 22°21' E 114°03'9 8.5
2016-Jun-24 02:21N 22°25' E 113°53'7 0.5
2016-Jun-23 12:07N 22°31' E 113°51'610.6
2016-Jun-23 11:33N 22°25' E 113°53'10 8.6
2016-Jun-23 10:27N 22°21' E 114°02'2010.3
2016-Jun-23 08:31N 22°08' E 114°18'1211.4
2016-Jun-23 07:29N 22°10' E 114°31'23715.5
2016-Jun-22 16:11N 23°46' E 118°26'1217.2
2016-Jun-22 15:29N 23°54' E 118°36'1716.8
2016-Jun-22 14:30N 24°04' E 118°50'1616.5
2016-Jun-22 13:33N 24°14' E 119°04'1716.6
2016-Jun-22 12:33N 24°24' E 119°19'1616.3
2016-Jun-22 11:33N 24°33' E 119°33'1716.6
2016-Jun-22 10:33N 24°45' E 119°46'1716.9
2016-Jun-22 09:33N 24°57' E 119°58'34616.4
2016-Jun-21 12:31N 29°59' E 123°08'1616.0
2016-Jun-21 11:32N 30°15' E 123°12'1616.6
2016-Jun-21 10:33N 30°31' E 123°13'4814.9
2016-Jun-21 07:21N 31°06' E 122°35'3913.4
2016-Jun-21 04:28N 31°16' E 121°51'1312.6
2016-Jun-21 03:27N 31°22' E 121°38'2 0.3
2016-Jun-20 18:34N 31°22' E 121°35'0 0.0
2016-Jun-20 17:21N 31°22' E 121°35'0 0.0
2016-Jun-20 16:15N 31°22' E 121°35'0 0.1
2016-Jun-20 15:33N 31°22' E 121°35'0 0.0
2016-Jun-20 14:21N 31°22' E 121°35'1 0.8
2016-Jun-20 13:33N 31°23' E 121°36'10 9.8
2016-Jun-20 12:30N 31°18' E 121°46'106 8.2
2016-Jun-19 23:33N 29°41' E 122°35'1312.6
2016-Jun-19 22:32N 29°44' E 122°21'1111.6
2016-Jun-19 21:33N 29°52' E 122°12'1313.4
2016-Jun-19 20:33N 29°58' E 121°58'7 5.2
2016-Jun-19 19:13N 29°57' E 121°50'0 0.0
2016-Jun-19 18:31N 29°57' E 121°50'0 0.0
2016-Jun-19 17:31N 29°57' E 121°50'0 0.0
2016-Jun-19 10:31N 29°57' E 121°50'0 0.0
2016-Jun-19 09:27N 29°57' E 121°50'2 1.9
2016-Jun-19 08:33N 29°57' E 121°52'8 7.4
2016-Jun-19 07:32N 29°57' E 122°01'1212.2
2016-Jun-19 06:33N 29°51' E 122°13'1010.4
2016-Jun-19 05:34N 29°44' E 122°22'10 9.6
2016-Jun-19 04:33N 29°42' E 122°33'1511.4
2016-Jun-19 03:12N 29°49' E 122°48'  
2016-Jun-15 23:24N 36°36' E 122°24'1011.6
2016-Jun-15 22:32N 36°41' E 122°35'1212.0
2016-Jun-15 21:33N 36°52' E 122°40'1211.6
2016-Jun-15 20:33N 37°03' E 122°44'1111.2
2016-Jun-15 19:33N 37°14' E 122°46'1111.3
2016-Jun-15 18:32N 37°26' E 122°46'1311.8
2016-Jun-15 17:25N 37°36' E 122°36'1112.6
2016-Jun-15 16:32N 37°45' E 122°27'1712.9
2016-Jun-15 15:14N 37°58' E 122°13'20311.4
2016-Jun-14 21:24N 38°55' E 118°04'910.6
2016-Jun-14 20:33N 38°57' E 117°53'5 5.1
2016-Jun-14 19:33N 38°59' E 117°47'0 0.0
2016-Jun-14 18:33N 38°59' E 117°47'0 0.0
2016-Jun-14 17:33N 38°59' E 117°47'0 0.0
2016-Jun-14 16:27N 38°59' E 117°47'0 0.0
2016-Jun-14 15:33N 38°59' E 117°47'0 0.0
2016-Jun-14 14:33N 38°59' E 117°47'0 0.0
2016-Jun-14 13:33N 38°59' E 117°47'0 0.0
2016-Jun-14 12:33N 38°59' E 117°47'0 0.0
2016-Jun-14 11:33N 38°59' E 117°47'0 0.0
2016-Jun-14 10:27N 38°59' E 117°47'0 0.0
2016-Jun-14 09:33N 38°59' E 117°47'0 0.0
2016-Jun-14 08:33N 38°59' E 117°47'0 0.0
2016-Jun-14 07:33N 38°59' E 117°47'0 0.0
2016-Jun-14 06:33N 38°59' E 117°47'0 0.0
2016-Jun-14 04:27N 38°59' E 117°47'0 0.0
2016-Jun-14 03:33N 38°59' E 117°47'  
Track history (hours):
 
Tides and Currents Weather Stations Pressure Air Temp Water Temp Dewpoint Dewpoint Depression Visibility Wind Speed Wind Dir Waves Ship Positions

Zim Rio Grande

Last reported at 2016-Jun-24 03:27 UTC. Time now 2016-Jun-25 10:39 UTC.
Position N 22°21' E 114°03'.

Length 260 m; draft 11.8 m.

Type: Ship (hazmat cat A). MMSI: 249253000.

Date/timePositionNaut miles runAvg speedWind from/ knotsBaromVisibWave heightAir tempDewpointWater temp
2016-Jun-24 03:27N 22°21' E 114°03'9 8.5
2016-Jun-24 02:21N 22°25' E 113°53'7 0.5
2016-Jun-23 12:07N 22°31' E 113°51'610.6
2016-Jun-23 11:33N 22°25' E 113°53'10 8.6
2016-Jun-23 10:27N 22°21' E 114°02'2010.3
2016-Jun-23 08:31N 22°08' E 114°18'1211.4
2016-Jun-23 07:29N 22°10' E 114°31'23715.5
2016-Jun-22 16:11N 23°46' E 118°26'1217.2
2016-Jun-22 15:29N 23°54' E 118°36'1716.8
2016-Jun-22 14:30N 24°04' E 118°50'1616.5
2016-Jun-22 13:33N 24°14' E 119°04'1716.6
2016-Jun-22 12:33N 24°24' E 119°19'1616.3
2016-Jun-22 11:33N 24°33' E 119°33'1716.6
2016-Jun-22 10:33N 24°45' E 119°46'1716.9
2016-Jun-22 09:33N 24°57' E 119°58'34616.4
2016-Jun-21 12:31N 29°59' E 123°08'1616.0
2016-Jun-21 11:32N 30°15' E 123°12'1616.6
2016-Jun-21 10:33N 30°31' E 123°13'4814.9
2016-Jun-21 07:21N 31°06' E 122°35'3913.4
2016-Jun-21 04:28N 31°16' E 121°51'1312.6
2016-Jun-21 03:27N 31°22' E 121°38'2 0.3
2016-Jun-20 18:34N 31°22' E 121°35'0 0.0
2016-Jun-20 17:21N 31°22' E 121°35'0 0.0
2016-Jun-20 16:15N 31°22' E 121°35'0 0.1
2016-Jun-20 15:33N 31°22' E 121°35'0 0.0
2016-Jun-20 14:21N 31°22' E 121°35'1 0.8
2016-Jun-20 13:33N 31°23' E 121°36'10 9.8
2016-Jun-20 12:30N 31°18' E 121°46'106 8.2
2016-Jun-19 23:33N 29°41' E 122°35'1312.6
2016-Jun-19 22:32N 29°44' E 122°21'1111.6
2016-Jun-19 21:33N 29°52' E 122°12'1313.4
2016-Jun-19 20:33N 29°58' E 121°58'7 5.2
2016-Jun-19 19:13N 29°57' E 121°50'0 0.0
2016-Jun-19 18:31N 29°57' E 121°50'0 0.0
2016-Jun-19 17:31N 29°57' E 121°50'0 0.0
2016-Jun-19 10:31N 29°57' E 121°50'0 0.0
2016-Jun-19 09:27N 29°57' E 121°50'2 1.9
2016-Jun-19 08:33N 29°57' E 121°52'8 7.4
2016-Jun-19 07:32N 29°57' E 122°01'1212.2
2016-Jun-19 06:33N 29°51' E 122°13'1010.4
2016-Jun-19 05:34N 29°44' E 122°22'10 9.6
2016-Jun-19 04:33N 29°42' E 122°33'1511.4
2016-Jun-19 03:12N 29°49' E 122°48'  
2016-Jun-15 23:24N 36°36' E 122°24'1011.6
2016-Jun-15 22:32N 36°41' E 122°35'1212.0
2016-Jun-15 21:33N 36°52' E 122°40'1211.6
2016-Jun-15 20:33N 37°03' E 122°44'1111.2
2016-Jun-15 19:33N 37°14' E 122°46'1111.3
2016-Jun-15 18:32N 37°26' E 122°46'1311.8
2016-Jun-15 17:25N 37°36' E 122°36'1112.6
2016-Jun-15 16:32N 37°45' E 122°27'1712.9
2016-Jun-15 15:14N 37°58' E 122°13'20311.4
2016-Jun-14 21:24N 38°55' E 118°04'910.6
2016-Jun-14 20:33N 38°57' E 117°53'5 5.1
2016-Jun-14 19:33N 38°59' E 117°47'0 0.0
2016-Jun-14 18:33N 38°59' E 117°47'0 0.0
2016-Jun-14 17:33N 38°59' E 117°47'0 0.0
2016-Jun-14 16:27N 38°59' E 117°47'0 0.0
2016-Jun-14 15:33N 38°59' E 117°47'0 0.0
2016-Jun-14 14:33N 38°59' E 117°47'0 0.0
2016-Jun-14 13:33N 38°59' E 117°47'0 0.0
2016-Jun-14 12:33N 38°59' E 117°47'0 0.0
2016-Jun-14 11:33N 38°59' E 117°47'0 0.0
2016-Jun-14 10:27N 38°59' E 117°47'0 0.0
2016-Jun-14 09:33N 38°59' E 117°47'0 0.0
2016-Jun-14 08:33N 38°59' E 117°47'0 0.0
2016-Jun-14 07:33N 38°59' E 117°47'0 0.0
2016-Jun-14 06:33N 38°59' E 117°47'0 0.0
2016-Jun-14 04:27N 38°59' E 117°47'0 0.0
2016-Jun-14 03:33N 38°59' E 117°47'  

Dump ship's entire track history